Aérodrome :
LOGIN :

S'inscrire | Disclaimer

   EN    FR    IT 

 










Légende :    VFR   VFR Marginal   IFR   IFR Intensif   IFR Très Intensif
Visi : 
Plafond : 
>= 8 km
>= 3000ft
5 à 8 km
1000 à 3000 ft
1500m à 5 km
500 à 1000 ft
800 à 1500m
200 à 500 ft
< 800m
< 200 ft
Symboles :   Orages  Brouillard  Fortes neiges  Fortes précipitations  Vent > 20 kt
SIGMETs :   Divers  Orages  Givrage  Turbulence  Onde Orograph.  Cendres Volcan.







- Altitude de l'aérodrome : 821 ft
- Code IATA : LYS
- Voir les cartes d'approche


LFLL - Lyon St Exupéry / Satolas

DERNIER METAR :
  • 280000Z 32013KT 9999 BKN031 05/02 Q1014 NOSIG

METARs EXPIRÉS :
  • 272330Z 33010KT 9999 BKN023 05/02 Q1014 NOSIG
  • 272300Z 32012KT 9999 -RA BKN024 05/02 Q1015 NOSIG
  • 272230Z 33010KT 9999 BKN021 BKN040 05/02 Q1014 NOSIG
  • 272200Z 32012KT 9999 SCT032 BKN060 05/02 Q1014 NOSIG
  • 272130Z 32010KT 9999 SCT023 BKN040 05/02 Q1015 NOSIG

TAF TAF LFLL
Valide du 28 à 00h jusqu'au 29 à 06h UTC


272300Z 2800/2906 33010KT 9999 BKN015
PROB30
TEMPO 2800/2803 RA BKN012
BECMG 2804/2806 SCT040
BECMG 2806/2808 SCT020 SCT050
BECMG 2809/2811 SCT040
PROB30
TEMPO 2814/2818 5000 SHRA SCT040TCU
BECMG 2818/2820 VRB02KT CAVOK
PROB30
TEMPO 2903/2906 3000 BR
Pas de NOTAMs connus pour ce terrain.
2 SIGMETs publiés pour la FIR Marseille (LFMM) :
 
Turbulence forte
LFMM SIGMET 3 VALID 272300/280300 LFPW
LFMM MARSEILLE FIR/UIR SEV TURB FCST WI N4115 E00430 - N4200 E00430 - N4215 E00230 - N4330 E00245 - N4415 E00445 - N4300 E00945 - N4115 E00945 SFC/FL060 STNR NC=
Onde orographique forte
LFMM SIGMET 2 VALID 272300/280300 LFPW
LFMM MARSEILLE FIR/UIR SEV MTW FCST WI N4315 E00930 - N4315 E00945 - N4115 E00945 - N4115 E00845 - N4230 E00815 FL060/240 STNR INTSF=



MET'MAP, la Météo Aéronautique d'un coup d'oeil ! - Copyright ORBIFLY Décembre 2007 - Disclaimer

ORBIFLY MET'MAP TEAM :

Programmation & Développement : Alexandra Zaïnal
Conception & Développement : Baudouin d'Aumeries
Co-Programmation & Développement : Marc-Olivier Méhu
Soutien technique & logistique : Manuel Goepfert

Contact : metmap@orbifly.com




SOURCES & CREDITS :

   NOAA